sensor_id;sensor_type;location;lat;lon;timestamp;P1;durP1;ratioP1;P2;durP2;ratioP2
60054;SDS011;45930;53.514;55.904;2023-03-29T00:00:21;22.73;;;12.02;;
60054;SDS011;45930;53.514;55.904;2023-03-29T00:01:22;28.13;;;15.15;;
60054;SDS011;45930;53.514;55.904;2023-03-29T00:02:24;17.73;;;9.20;;
60054;SDS011;45930;53.514;55.904;2023-03-29T00:03:29;21.45;;;10.43;;
60054;SDS011;45930;53.514;55.904;2023-03-29T00:04:30;26.58;;;12.07;;
60054;SDS011;45930;53.514;55.904;2023-03-29T00:05:30;21.40;;;11.38;;
60054;SDS011;45930;53.514;55.904;2023-03-29T00:06:35;23.40;;;11.85;;
60054;SDS011;45930;53.514;55.904;2023-03-29T00:07:37;21.70;;;12.20;;
60054;SDS011;45930;53.514;55.904;2023-03-29T00:08:37;25.45;;;12.88;;
60054;SDS011;45930;53.514;55.904;2023-03-29T00:09:39;22.52;;;11.73;;
60054;SDS011;45930;53.514;55.904;2023-03-29T00:10:40;24.48;;;12.60;;
60054;SDS011;45930;53.514;55.904;2023-03-29T00:11:44;22.58;;;12.73;;
60054;SDS011;45930;53.514;55.904;2023-03-29T00:12:45;22.95;;;12.68;;
60054;SDS011;45930;53.514;55.904;2023-03-29T00:13:46;25.35;;;13.35;;
60054;SDS011;45930;53.514;55.904;2023-03-29T00:14:47;19.55;;;11.10;;
60054;SDS011;45930;53.514;55.904;2023-03-29T00:15:48;20.25;;;11.13;;
60054;SDS011;45930;53.514;55.904;2023-03-29T00:16:49;27.45;;;12.65;;
60054;SDS011;45930;53.514;55.904;2023-03-29T00:17:50;23.58;;;12.88;;
60054;SDS011;45930;53.514;55.904;2023-03-29T00:18:51;26.02;;;13.57;;
60054;SDS011;45930;53.514;55.904;2023-03-29T00:19:52;26.50;;;13.60;;
60054;SDS011;45930;53.514;55.904;2023-03-29T00:20:56;24.05;;;12.52;;
60054;SDS011;45930;53.514;55.904;2023-03-29T00:21:58;23.90;;;12.30;;
60054;SDS011;45930;53.514;55.904;2023-03-29T00:22:59;21.30;;;12.45;;
60054;SDS011;45930;53.514;55.904;2023-03-29T00:24:00;16.48;;;9.68;;
60054;SDS011;45930;53.514;55.904;2023-03-29T00:25:01;20.63;;;12.75;;
60054;SDS011;45930;53.514;55.904;2023-03-29T00:33:46;21.40;;;10.27;;
60054;SDS011;45930;53.514;55.904;2023-03-29T00:34:47;21.83;;;11.18;;
60054;SDS011;45930;53.514;55.904;2023-03-29T00:35:51;18.80;;;9.73;;
60054;SDS011;45930;53.514;55.904;2023-03-29T00:36:52;21.98;;;10.82;;
60054;SDS011;45930;53.514;55.904;2023-03-29T00:37:57;20.73;;;11.57;;
60054;SDS011;45930;53.514;55.904;2023-03-29T00:38:57;17.65;;;9.52;;
60054;SDS011;45930;53.514;55.904;2023-03-29T00:39:58;17.38;;;10.00;;
60054;SDS011;45930;53.514;55.904;2023-03-29T00:40:59;22.10;;;11.57;;
60054;SDS011;45930;53.514;55.904;2023-03-29T00:42:00;23.92;;;12.32;;
60054;SDS011;45930;53.514;55.904;2023-03-29T00:43:01;20.08;;;10.70;;
60054;SDS011;45930;53.514;55.904;2023-03-29T00:44:03;15.57;;;8.02;;
60054;SDS011;45930;53.514;55.904;2023-03-29T00:45:05;20.52;;;11.55;;
60054;SDS011;45930;53.514;55.904;2023-03-29T00:46:09;22.92;;;12.23;;
60054;SDS011;45930;53.514;55.904;2023-03-29T00:47:10;23.48;;;10.98;;
60054;SDS011;45930;53.514;55.904;2023-03-29T00:48:11;19.15;;;11.10;;
60054;SDS011;45930;53.514;55.904;2023-03-29T00:49:16;25.70;;;13.18;;
60054;SDS011;45930;53.514;55.904;2023-03-29T00:50:17;21.85;;;11.82;;
60054;SDS011;45930;53.514;55.904;2023-03-29T00:51:29;15.75;;;9.15;;
60054;SDS011;45930;53.514;55.904;2023-03-29T00:52:34;20.80;;;10.23;;
60054;SDS011;45930;53.514;55.904;2023-03-29T00:53:36;20.80;;;10.93;;
60054;SDS011;45930;53.514;55.904;2023-03-29T00:54:41;17.88;;;10.10;;
60054;SDS011;45930;53.514;55.904;2023-03-29T00:55:52;18.35;;;9.88;;
60054;SDS011;45930;53.514;55.904;2023-03-29T00:56:58;20.92;;;10.27;;
60054;SDS011;45930;53.514;55.904;2023-03-29T00:58:04;21.17;;;11.25;;
60054;SDS011;45930;53.514;55.904;2023-03-29T00:59:10;21.38;;;10.45;;
60054;SDS011;45930;53.514;55.904;2023-03-29T01:00:15;21.55;;;11.20;;
60054;SDS011;45930;53.514;55.904;2023-03-29T01:01:22;21.92;;;10.32;;
60054;SDS011;45930;53.514;55.904;2023-03-29T01:02:27;20.33;;;11.40;;
60054;SDS011;45930;53.514;55.904;2023-03-29T01:03:35;23.10;;;11.63;;
60054;SDS011;45930;53.514;55.904;2023-03-29T01:05:50;17.88;;;11.02;;
60054;SDS011;45930;53.514;55.904;2023-03-29T01:08:05;20.55;;;10.52;;
60054;SDS011;45930;53.514;55.904;2023-03-29T01:09:17;21.17;;;11.85;;
60054;SDS011;45930;53.514;55.904;2023-03-29T01:10:24;21.27;;;11.48;;
60054;SDS011;45930;53.514;55.904;2023-03-29T01:11:36;16.83;;;9.70;;
60054;SDS011;45930;53.514;55.904;2023-03-29T01:12:46;20.92;;;10.60;;
60054;SDS011;45930;53.514;55.904;2023-03-29T01:14:58;24.40;;;12.25;;
60054;SDS011;45930;53.514;55.904;2023-03-29T01:17:25;17.45;;;9.45;;
60054;SDS011;45930;53.514;55.904;2023-03-29T01:18:26;13.05;;;8.32;;
60054;SDS011;45930;53.514;55.904;2023-03-29T01:19:28;23.45;;;11.93;;
60054;SDS011;45930;53.514;55.904;2023-03-29T01:21:49;18.77;;;10.07;;
60054;SDS011;45930;53.514;55.904;2023-03-29T01:24:50;17.48;;;9.77;;
60054;SDS011;45930;53.514;55.904;2023-03-29T01:25:56;20.35;;;9.98;;
60054;SDS011;45930;53.514;55.904;2023-03-29T01:27:18;21.77;;;11.27;;
60054;SDS011;45930;53.514;55.904;2023-03-29T01:28:59;25.08;;;12.38;;
60054;SDS011;45930;53.514;55.904;2023-03-29T01:30:02;21.55;;;10.38;;
60054;SDS011;45930;53.514;55.904;2023-03-29T01:31:15;28.80;;;12.02;;
60054;SDS011;45930;53.514;55.904;2023-03-29T01:32:25;20.30;;;10.68;;
60054;SDS011;45930;53.514;55.904;2023-03-29T01:33:36;21.77;;;10.90;;
60054;SDS011;45930;53.514;55.904;2023-03-29T01:37:06;19.33;;;10.70;;
60054;SDS011;45930;53.514;55.904;2023-03-29T01:38:23;20.55;;;10.70;;
60054;SDS011;45930;53.514;55.904;2023-03-29T01:39:51;21.38;;;10.35;;
60054;SDS011;45930;53.514;55.904;2023-03-29T01:40:52;19.77;;;9.63;;
60054;SDS011;45930;53.514;55.904;2023-03-29T01:46:05;19.05;;;10.05;;
60054;SDS011;45930;53.514;55.904;2023-03-29T01:47:29;15.77;;;8.32;;
60054;SDS011;45930;53.514;55.904;2023-03-29T01:48:56;19.38;;;10.70;;
60054;SDS011;45930;53.514;55.904;2023-03-29T01:50:10;20.42;;;10.65;;
60054;SDS011;45930;53.514;55.904;2023-03-29T01:52:36;24.40;;;12.77;;
60054;SDS011;45930;53.514;55.904;2023-03-29T01:56:16;21.83;;;12.10;;
60054;SDS011;45930;53.514;55.904;2023-03-29T01:58:28;23.40;;;11.13;;
60054;SDS011;45930;53.514;55.904;2023-03-29T02:00:35;20.30;;;9.13;;
60054;SDS011;45930;53.514;55.904;2023-03-29T02:01:44;18.33;;;9.68;;
60054;SDS011;45930;53.514;55.904;2023-03-29T02:02:49;23.02;;;11.70;;
60054;SDS011;45930;53.514;55.904;2023-03-29T02:03:54;21.05;;;10.40;;
60054;SDS011;45930;53.514;55.904;2023-03-29T02:05:02;21.58;;;12.52;;
60054;SDS011;45930;53.514;55.904;2023-03-29T02:06:04;18.08;;;10.32;;
60054;SDS011;45930;53.514;55.904;2023-03-29T02:07:05;21.17;;;11.15;;
60054;SDS011;45930;53.514;55.904;2023-03-29T02:08:09;22.77;;;12.43;;
60054;SDS011;45930;53.514;55.904;2023-03-29T02:09:12;23.40;;;11.95;;
60054;SDS011;45930;53.514;55.904;2023-03-29T02:10:14;21.77;;;11.48;;
60054;SDS011;45930;53.514;55.904;2023-03-29T02:11:16;22.92;;;11.38;;
60054;SDS011;45930;53.514;55.904;2023-03-29T02:12:19;22.52;;;11.93;;
60054;SDS011;45930;53.514;55.904;2023-03-29T02:13:20;23.77;;;12.55;;
60054;SDS011;45930;53.514;55.904;2023-03-29T02:14:21;19.17;;;10.70;;
60054;SDS011;45930;53.514;55.904;2023-03-29T02:15:23;24.83;;;12.88;;
60054;SDS011;45930;53.514;55.904;2023-03-29T02:16:24;23.92;;;11.80;;
60054;SDS011;45930;53.514;55.904;2023-03-29T02:17:26;18.80;;;11.00;;
60054;SDS011;45930;53.514;55.904;2023-03-29T02:18:28;19.33;;;9.98;;
60054;SDS011;45930;53.514;55.904;2023-03-29T02:19:29;23.98;;;12.55;;
60054;SDS011;45930;53.514;55.904;2023-03-29T02:20:39;25.13;;;12.70;;
60054;SDS011;45930;53.514;55.904;2023-03-29T02:24:20;29.33;;;14.57;;
60054;SDS011;45930;53.514;55.904;2023-03-29T02:25:24;31.08;;;14.13;;
60054;SDS011;45930;53.514;55.904;2023-03-29T02:26:25;31.25;;;13.45;;
60054;SDS011;45930;53.514;55.904;2023-03-29T02:27:28;35.20;;;15.75;;
60054;SDS011;45930;53.514;55.904;2023-03-29T02:28:29;28.55;;;14.77;;
60054;SDS011;45930;53.514;55.904;2023-03-29T02:29:31;40.83;;;16.40;;
60054;SDS011;45930;53.514;55.904;2023-03-29T02:30:51;35.70;;;16.27;;
60054;SDS011;45930;53.514;55.904;2023-03-29T02:32:33;32.78;;;16.83;;
60054;SDS011;45930;53.514;55.904;2023-03-29T02:33:56;39.42;;;16.02;;
60054;SDS011;45930;53.514;55.904;2023-03-29T02:35:06;33.83;;;16.80;;
60054;SDS011;45930;53.514;55.904;2023-03-29T02:36:16;40.65;;;16.23;;
60054;SDS011;45930;53.514;55.904;2023-03-29T02:38:24;41.13;;;17.02;;
60054;SDS011;45930;53.514;55.904;2023-03-29T02:39:27;30.88;;;14.68;;
60054;SDS011;45930;53.514;55.904;2023-03-29T02:40:31;36.90;;;15.10;;
60054;SDS011;45930;53.514;55.904;2023-03-29T02:41:34;39.08;;;16.25;;
60054;SDS011;45930;53.514;55.904;2023-03-29T02:42:38;38.90;;;17.92;;
60054;SDS011;45930;53.514;55.904;2023-03-29T02:43:42;41.22;;;16.00;;
60054;SDS011;45930;53.514;55.904;2023-03-29T02:44:45;34.95;;;14.60;;
60054;SDS011;45930;53.514;55.904;2023-03-29T02:45:50;38.35;;;15.68;;
60054;SDS011;45930;53.514;55.904;2023-03-29T02:46:52;40.08;;;17.30;;
60054;SDS011;45930;53.514;55.904;2023-03-29T02:47:58;37.50;;;13.95;;
60054;SDS011;45930;53.514;55.904;2023-03-29T02:49:02;34.05;;;14.27;;
60054;SDS011;45930;53.514;55.904;2023-03-29T02:50:04;41.50;;;15.45;;
60054;SDS011;45930;53.514;55.904;2023-03-29T02:51:11;38.63;;;16.73;;
60054;SDS011;45930;53.514;55.904;2023-03-29T02:52:23;33.88;;;15.85;;
60054;SDS011;45930;53.514;55.904;2023-03-29T02:53:29;31.90;;;15.32;;
60054;SDS011;45930;53.514;55.904;2023-03-29T02:54:37;34.22;;;15.95;;
60054;SDS011;45930;53.514;55.904;2023-03-29T02:55:42;29.35;;;13.70;;
60054;SDS011;45930;53.514;55.904;2023-03-29T02:56:49;31.13;;;13.35;;
60054;SDS011;45930;53.514;55.904;2023-03-29T02:57:55;31.38;;;14.07;;
60054;SDS011;45930;53.514;55.904;2023-03-29T02:58:57;30.10;;;15.52;;
60054;SDS011;45930;53.514;55.904;2023-03-29T02:59:57;30.23;;;12.05;;
60054;SDS011;45930;53.514;55.904;2023-03-29T03:01:00;26.83;;;13.50;;
60054;SDS011;45930;53.514;55.904;2023-03-29T03:02:02;29.17;;;14.27;;
60054;SDS011;45930;53.514;55.904;2023-03-29T03:03:05;20.60;;;10.15;;
60054;SDS011;45930;53.514;55.904;2023-03-29T03:04:07;26.75;;;13.00;;
60054;SDS011;45930;53.514;55.904;2023-03-29T03:05:09;23.05;;;12.52;;
60054;SDS011;45930;53.514;55.904;2023-03-29T03:06:10;24.00;;;12.90;;
60054;SDS011;45930;53.514;55.904;2023-03-29T03:07:11;21.80;;;11.15;;
60054;SDS011;45930;53.514;55.904;2023-03-29T03:08:13;21.00;;;10.48;;
60054;SDS011;45930;53.514;55.904;2023-03-29T03:09:14;22.58;;;11.32;;
60054;SDS011;45930;53.514;55.904;2023-03-29T03:10:16;24.63;;;12.38;;
60054;SDS011;45930;53.514;55.904;2023-03-29T03:11:18;24.17;;;11.38;;
60054;SDS011;45930;53.514;55.904;2023-03-29T03:12:19;19.98;;;11.40;;
60054;SDS011;45930;53.514;55.904;2023-03-29T03:13:20;20.50;;;11.15;;
60054;SDS011;45930;53.514;55.904;2023-03-29T03:14:21;20.45;;;10.73;;
60054;SDS011;45930;53.514;55.904;2023-03-29T03:15:22;21.23;;;10.43;;
60054;SDS011;45930;53.514;55.904;2023-03-29T03:16:23;17.50;;;9.88;;
60054;SDS011;45930;53.514;55.904;2023-03-29T03:17:24;20.85;;;10.45;;
60054;SDS011;45930;53.514;55.904;2023-03-29T03:18:25;21.10;;;11.63;;
60054;SDS011;45930;53.514;55.904;2023-03-29T03:19:26;21.80;;;10.52;;
60054;SDS011;45930;53.514;55.904;2023-03-29T03:20:27;19.40;;;10.02;;
60054;SDS011;45930;53.514;55.904;2023-03-29T03:21:28;30.83;;;11.13;;
60054;SDS011;45930;53.514;55.904;2023-03-29T03:22:29;21.13;;;10.35;;
60054;SDS011;45930;53.514;55.904;2023-03-29T03:23:31;18.40;;;9.52;;
60054;SDS011;45930;53.514;55.904;2023-03-29T03:24:32;18.92;;;10.70;;
60054;SDS011;45930;53.514;55.904;2023-03-29T03:25:33;18.05;;;10.13;;
60054;SDS011;45930;53.514;55.904;2023-03-29T03:26:34;19.98;;;9.55;;
60054;SDS011;45930;53.514;55.904;2023-03-29T03:27:37;16.67;;;9.90;;
60054;SDS011;45930;53.514;55.904;2023-03-29T03:28:39;17.00;;;8.98;;
60054;SDS011;45930;53.514;55.904;2023-03-29T03:29:40;16.42;;;8.43;;
60054;SDS011;45930;53.514;55.904;2023-03-29T03:30:41;20.75;;;9.90;;
60054;SDS011;45930;53.514;55.904;2023-03-29T03:31:42;15.57;;;9.05;;
60054;SDS011;45930;53.514;55.904;2023-03-29T03:32:43;16.17;;;9.32;;
60054;SDS011;45930;53.514;55.904;2023-03-29T03:33:44;17.48;;;10.05;;
60054;SDS011;45930;53.514;55.904;2023-03-29T03:34:45;17.08;;;9.73;;
60054;SDS011;45930;53.514;55.904;2023-03-29T03:35:46;22.92;;;10.98;;
60054;SDS011;45930;53.514;55.904;2023-03-29T03:36:47;16.42;;;8.73;;
60054;SDS011;45930;53.514;55.904;2023-03-29T03:37:47;16.73;;;8.85;;
60054;SDS011;45930;53.514;55.904;2023-03-29T03:38:48;13.95;;;7.95;;
60054;SDS011;45930;53.514;55.904;2023-03-29T03:39:49;19.23;;;10.60;;
60054;SDS011;45930;53.514;55.904;2023-03-29T03:40:54;18.92;;;10.80;;
60054;SDS011;45930;53.514;55.904;2023-03-29T03:41:56;19.48;;;10.30;;
60054;SDS011;45930;53.514;55.904;2023-03-29T03:42:56;15.15;;;8.27;;
60054;SDS011;45930;53.514;55.904;2023-03-29T03:43:57;15.95;;;9.55;;
60054;SDS011;45930;53.514;55.904;2023-03-29T03:44:59;16.50;;;8.45;;
60054;SDS011;45930;53.514;55.904;2023-03-29T03:46:00;17.17;;;9.80;;
60054;SDS011;45930;53.514;55.904;2023-03-29T03:47:01;17.05;;;8.40;;
60054;SDS011;45930;53.514;55.904;2023-03-29T03:48:03;15.88;;;9.98;;
60054;SDS011;45930;53.514;55.904;2023-03-29T03:49:04;19.15;;;9.80;;
60054;SDS011;45930;53.514;55.904;2023-03-29T03:50:05;16.25;;;9.90;;
60054;SDS011;45930;53.514;55.904;2023-03-29T03:51:07;17.33;;;9.23;;
60054;SDS011;45930;53.514;55.904;2023-03-29T03:52:09;15.20;;;8.65;;
60054;SDS011;45930;53.514;55.904;2023-03-29T03:53:10;12.90;;;9.00;;
60054;SDS011;45930;53.514;55.904;2023-03-29T03:54:11;15.77;;;8.63;;
60054;SDS011;45930;53.514;55.904;2023-03-29T03:55:11;17.95;;;9.73;;
60054;SDS011;45930;53.514;55.904;2023-03-29T03:56:13;13.50;;;8.00;;
60054;SDS011;45930;53.514;55.904;2023-03-29T03:57:14;16.88;;;8.77;;
60054;SDS011;45930;53.514;55.904;2023-03-29T03:58:16;13.95;;;8.38;;
60054;SDS011;45930;53.514;55.904;2023-03-29T03:59:17;16.55;;;8.13;;
60054;SDS011;45930;53.514;55.904;2023-03-29T04:00:18;17.73;;;10.20;;
60054;SDS011;45930;53.514;55.904;2023-03-29T04:01:19;15.88;;;9.15;;
60054;SDS011;45930;53.514;55.904;2023-03-29T04:02:20;24.45;;;10.30;;
60054;SDS011;45930;53.514;55.904;2023-03-29T04:03:21;14.02;;;8.30;;
60054;SDS011;45930;53.514;55.904;2023-03-29T04:04:23;15.85;;;8.85;;
60054;SDS011;45930;53.514;55.904;2023-03-29T04:05:24;16.60;;;8.15;;
60054;SDS011;45930;53.514;55.904;2023-03-29T04:06:25;15.35;;;8.10;;
60054;SDS011;45930;53.514;55.904;2023-03-29T04:07:29;14.98;;;8.18;;
60054;SDS011;45930;53.514;55.904;2023-03-29T04:08:30;12.45;;;7.75;;
60054;SDS011;45930;53.514;55.904;2023-03-29T04:09:31;12.88;;;7.72;;
60054;SDS011;45930;53.514;55.904;2023-03-29T04:10:33;16.98;;;8.90;;
60054;SDS011;45930;53.514;55.904;2023-03-29T04:11:34;13.68;;;7.85;;
60054;SDS011;45930;53.514;55.904;2023-03-29T04:12:36;14.95;;;7.78;;
60054;SDS011;45930;53.514;55.904;2023-03-29T04:13:38;14.75;;;7.63;;
60054;SDS011;45930;53.514;55.904;2023-03-29T04:14:39;15.77;;;8.93;;
60054;SDS011;45930;53.514;55.904;2023-03-29T04:15:39;12.05;;;6.90;;
60054;SDS011;45930;53.514;55.904;2023-03-29T04:16:40;13.07;;;7.97;;
60054;SDS011;45930;53.514;55.904;2023-03-29T04:17:41;12.80;;;7.85;;
60054;SDS011;45930;53.514;55.904;2023-03-29T04:18:42;14.68;;;7.95;;
60054;SDS011;45930;53.514;55.904;2023-03-29T04:19:43;13.48;;;8.18;;
60054;SDS011;45930;53.514;55.904;2023-03-29T04:20:43;10.55;;;6.85;;
60054;SDS011;45930;53.514;55.904;2023-03-29T04:21:45;11.13;;;6.63;;
60054;SDS011;45930;53.514;55.904;2023-03-29T04:22:48;11.98;;;6.57;;
60054;SDS011;45930;53.514;55.904;2023-03-29T04:23:50;10.98;;;7.10;;
60054;SDS011;45930;53.514;55.904;2023-03-29T04:24:51;9.23;;;6.07;;
60054;SDS011;45930;53.514;55.904;2023-03-29T04:25:54;12.93;;;7.32;;
60054;SDS011;45930;53.514;55.904;2023-03-29T04:26:58;11.15;;;7.15;;
60054;SDS011;45930;53.514;55.904;2023-03-29T04:27:59;12.77;;;8.30;;
60054;SDS011;45930;53.514;55.904;2023-03-29T04:29:00;12.73;;;7.18;;
60054;SDS011;45930;53.514;55.904;2023-03-29T04:30:01;12.70;;;6.78;;
60054;SDS011;45930;53.514;55.904;2023-03-29T04:31:04;11.07;;;6.95;;
60054;SDS011;45930;53.514;55.904;2023-03-29T04:32:11;11.82;;;6.03;;
60054;SDS011;45930;53.514;55.904;2023-03-29T04:33:12;12.00;;;7.07;;
60054;SDS011;45930;53.514;55.904;2023-03-29T04:34:13;11.32;;;6.68;;
60054;SDS011;45930;53.514;55.904;2023-03-29T04:35:13;11.63;;;6.45;;
60054;SDS011;45930;53.514;55.904;2023-03-29T04:36:14;10.77;;;6.00;;
60054;SDS011;45930;53.514;55.904;2023-03-29T04:37:15;10.35;;;6.13;;
60054;SDS011;45930;53.514;55.904;2023-03-29T04:38:21;9.18;;;5.57;;
60054;SDS011;45930;53.514;55.904;2023-03-29T04:39:22;10.23;;;5.88;;
60054;SDS011;45930;53.514;55.904;2023-03-29T04:40:31;8.02;;;5.90;;
60054;SDS011;45930;53.514;55.904;2023-03-29T04:41:32;12.43;;;7.05;;
60054;SDS011;45930;53.514;55.904;2023-03-29T04:42:34;12.13;;;6.75;;
60054;SDS011;45930;53.514;55.904;2023-03-29T04:43:36;11.98;;;6.70;;
60054;SDS011;45930;53.514;55.904;2023-03-29T04:44:37;9.73;;;5.47;;
60054;SDS011;45930;53.514;55.904;2023-03-29T04:45:39;9.90;;;5.78;;
60054;SDS011;45930;53.514;55.904;2023-03-29T04:46:40;8.57;;;6.28;;
60054;SDS011;45930;53.514;55.904;2023-03-29T04:47:42;10.27;;;6.30;;
60054;SDS011;45930;53.514;55.904;2023-03-29T04:48:44;10.18;;;5.80;;
60054;SDS011;45930;53.514;55.904;2023-03-29T04:49:45;13.27;;;6.25;;
60054;SDS011;45930;53.514;55.904;2023-03-29T04:50:46;10.30;;;5.75;;
60054;SDS011;45930;53.514;55.904;2023-03-29T04:51:46;8.25;;;5.75;;
60054;SDS011;45930;53.514;55.904;2023-03-29T04:52:47;8.48;;;5.18;;
60054;SDS011;45930;53.514;55.904;2023-03-29T04:53:50;10.65;;;5.75;;
60054;SDS011;45930;53.514;55.904;2023-03-29T04:54:51;8.73;;;5.70;;
60054;SDS011;45930;53.514;55.904;2023-03-29T04:55:51;12.13;;;6.60;;
60054;SDS011;45930;53.514;55.904;2023-03-29T04:56:54;11.40;;;5.70;;
60054;SDS011;45930;53.514;55.904;2023-03-29T04:57:55;11.85;;;6.65;;
60054;SDS011;45930;53.514;55.904;2023-03-29T04:58:56;9.00;;;5.18;;
60054;SDS011;45930;53.514;55.904;2023-03-29T04:59:57;11.63;;;5.40;;
60054;SDS011;45930;53.514;55.904;2023-03-29T05:00:58;9.68;;;6.50;;
60054;SDS011;45930;53.514;55.904;2023-03-29T05:01:59;11.50;;;5.85;;
60054;SDS011;45930;53.514;55.904;2023-03-29T05:03:02;7.85;;;5.13;;
60054;SDS011;45930;53.514;55.904;2023-03-29T05:04:03;8.57;;;4.93;;
60054;SDS011;45930;53.514;55.904;2023-03-29T05:05:04;8.90;;;6.07;;
60054;SDS011;45930;53.514;55.904;2023-03-29T05:06:07;12.50;;;6.38;;
60054;SDS011;45930;53.514;55.904;2023-03-29T05:07:09;6.93;;;4.95;;
60054;SDS011;45930;53.514;55.904;2023-03-29T05:08:11;8.77;;;5.45;;
60054;SDS011;45930;53.514;55.904;2023-03-29T05:09:11;8.88;;;5.88;;
60054;SDS011;45930;53.514;55.904;2023-03-29T05:10:12;10.32;;;6.53;;
60054;SDS011;45930;53.514;55.904;2023-03-29T05:11:14;12.27;;;5.68;;
60054;SDS011;45930;53.514;55.904;2023-03-29T05:12:15;10.93;;;4.93;;
60054;SDS011;45930;53.514;55.904;2023-03-29T05:13:18;9.30;;;5.25;;
60054;SDS011;45930;53.514;55.904;2023-03-29T05:14:19;10.25;;;5.55;;
60054;SDS011;45930;53.514;55.904;2023-03-29T05:15:20;9.73;;;4.93;;
60054;SDS011;45930;53.514;55.904;2023-03-29T05:16:21;6.88;;;4.85;;
60054;SDS011;45930;53.514;55.904;2023-03-29T05:17:23;11.25;;;5.63;;
60054;SDS011;45930;53.514;55.904;2023-03-29T05:18:29;7.20;;;5.03;;
60054;SDS011;45930;53.514;55.904;2023-03-29T05:19:31;11.32;;;6.07;;
60054;SDS011;45930;53.514;55.904;2023-03-29T05:20:32;6.55;;;4.82;;
60054;SDS011;45930;53.514;55.904;2023-03-29T05:21:33;8.65;;;5.30;;
60054;SDS011;45930;53.514;55.904;2023-03-29T05:22:35;7.68;;;4.80;;
60054;SDS011;45930;53.514;55.904;2023-03-29T05:23:35;6.28;;;4.47;;
60054;SDS011;45930;53.514;55.904;2023-03-29T05:24:36;9.60;;;4.70;;
60054;SDS011;45930;53.514;55.904;2023-03-29T05:25:37;9.52;;;5.68;;
60054;SDS011;45930;53.514;55.904;2023-03-29T05:26:38;8.20;;;5.53;;
60054;SDS011;45930;53.514;55.904;2023-03-29T05:27:39;7.63;;;4.72;;
60054;SDS011;45930;53.514;55.904;2023-03-29T05:28:40;7.53;;;4.85;;
60054;SDS011;45930;53.514;55.904;2023-03-29T05:29:41;6.75;;;4.43;;
60054;SDS011;45930;53.514;55.904;2023-03-29T05:30:44;8.85;;;4.40;;
60054;SDS011;45930;53.514;55.904;2023-03-29T05:31:45;7.25;;;4.90;;
60054;SDS011;45930;53.514;55.904;2023-03-29T05:32:46;10.52;;;5.75;;
60054;SDS011;45930;53.514;55.904;2023-03-29T05:33:47;8.10;;;5.10;;
60054;SDS011;45930;53.514;55.904;2023-03-29T05:34:48;9.25;;;4.57;;
60054;SDS011;45930;53.514;55.904;2023-03-29T05:35:56;12.98;;;5.78;;
60054;SDS011;45930;53.514;55.904;2023-03-29T05:36:59;10.77;;;5.20;;
60054;SDS011;45930;53.514;55.904;2023-03-29T05:38:01;9.35;;;5.82;;
60054;SDS011;45930;53.514;55.904;2023-03-29T05:39:03;9.73;;;4.90;;
60054;SDS011;45930;53.514;55.904;2023-03-29T05:40:05;7.85;;;4.93;;
60054;SDS011;45930;53.514;55.904;2023-03-29T05:41:09;7.60;;;4.90;;
60054;SDS011;45930;53.514;55.904;2023-03-29T05:42:10;6.43;;;4.85;;
60054;SDS011;45930;53.514;55.904;2023-03-29T05:43:15;8.60;;;5.55;;
60054;SDS011;45930;53.514;55.904;2023-03-29T05:44:16;8.98;;;4.55;;
60054;SDS011;45930;53.514;55.904;2023-03-29T05:45:16;8.88;;;5.18;;
60054;SDS011;45930;53.514;55.904;2023-03-29T05:46:17;6.90;;;4.38;;
60054;SDS011;45930;53.514;55.904;2023-03-29T05:47:18;7.68;;;4.55;;
60054;SDS011;45930;53.514;55.904;2023-03-29T05:48:19;6.38;;;4.53;;
60054;SDS011;45930;53.514;55.904;2023-03-29T05:49:22;7.93;;;4.93;;
60054;SDS011;45930;53.514;55.904;2023-03-29T05:50:23;7.40;;;4.97;;
60054;SDS011;45930;53.514;55.904;2023-03-29T05:51:24;8.90;;;5.57;;
60054;SDS011;45930;53.514;55.904;2023-03-29T05:52:25;7.97;;;5.38;;
60054;SDS011;45930;53.514;55.904;2023-03-29T05:53:26;10.02;;;5.18;;
60054;SDS011;45930;53.514;55.904;2023-03-29T05:54:27;8.65;;;5.60;;
60054;SDS011;45930;53.514;55.904;2023-03-29T05:55:28;8.02;;;4.63;;
60054;SDS011;45930;53.514;55.904;2023-03-29T05:56:29;6.13;;;4.53;;
60054;SDS011;45930;53.514;55.904;2023-03-29T05:57:30;8.38;;;5.75;;
60054;SDS011;45930;53.514;55.904;2023-03-29T05:58:30;8.55;;;5.30;;
60054;SDS011;45930;53.514;55.904;2023-03-29T05:59:31;8.73;;;5.10;;
60054;SDS011;45930;53.514;55.904;2023-03-29T06:00:33;8.23;;;5.47;;
60054;SDS011;45930;53.514;55.904;2023-03-29T06:01:36;8.20;;;5.07;;
60054;SDS011;45930;53.514;55.904;2023-03-29T06:02:37;7.57;;;4.40;;
60054;SDS011;45930;53.514;55.904;2023-03-29T06:03:38;9.65;;;4.82;;
60054;SDS011;45930;53.514;55.904;2023-03-29T06:04:39;7.18;;;4.97;;
60054;SDS011;45930;53.514;55.904;2023-03-29T06:05:39;8.45;;;5.10;;
60054;SDS011;45930;53.514;55.904;2023-03-29T06:06:40;6.65;;;4.82;;
60054;SDS011;45930;53.514;55.904;2023-03-29T06:07:41;8.23;;;5.10;;
60054;SDS011;45930;53.514;55.904;2023-03-29T06:08:42;6.90;;;4.78;;
60054;SDS011;45930;53.514;55.904;2023-03-29T06:09:44;7.50;;;4.10;;
60054;SDS011;45930;53.514;55.904;2023-03-29T06:10:44;5.72;;;4.07;;
60054;SDS011;45930;53.514;55.904;2023-03-29T06:11:45;9.88;;;4.97;;
60054;SDS011;45930;53.514;55.904;2023-03-29T06:12:46;8.70;;;4.72;;
60054;SDS011;45930;53.514;55.904;2023-03-29T06:13:48;8.40;;;4.90;;
60054;SDS011;45930;53.514;55.904;2023-03-29T06:14:49;9.20;;;5.70;;
60054;SDS011;45930;53.514;55.904;2023-03-29T06:15:50;8.30;;;4.63;;
60054;SDS011;45930;53.514;55.904;2023-03-29T06:16:51;7.82;;;5.03;;
60054;SDS011;45930;53.514;55.904;2023-03-29T06:17:52;6.63;;;5.07;;
60054;SDS011;45930;53.514;55.904;2023-03-29T06:18:56;10.68;;;5.25;;
60054;SDS011;45930;53.514;55.904;2023-03-29T06:19:57;8.27;;;4.75;;
60054;SDS011;45930;53.514;55.904;2023-03-29T06:20:58;7.35;;;5.15;;
60054;SDS011;45930;53.514;55.904;2023-03-29T06:22:01;7.70;;;4.97;;
60054;SDS011;45930;53.514;55.904;2023-03-29T06:23:03;6.57;;;4.35;;
60054;SDS011;45930;53.514;55.904;2023-03-29T06:24:03;7.72;;;4.15;;
60054;SDS011;45930;53.514;55.904;2023-03-29T06:25:05;7.60;;;5.25;;
60054;SDS011;45930;53.514;55.904;2023-03-29T06:26:07;7.18;;;5.30;;
60054;SDS011;45930;53.514;55.904;2023-03-29T06:27:09;8.98;;;5.43;;
60054;SDS011;45930;53.514;55.904;2023-03-29T06:28:11;9.73;;;5.65;;
60054;SDS011;45930;53.514;55.904;2023-03-29T06:29:13;7.20;;;4.60;;
60054;SDS011;45930;53.514;55.904;2023-03-29T06:30:14;6.65;;;4.70;;
60054;SDS011;45930;53.514;55.904;2023-03-29T06:31:15;6.93;;;4.05;;
60054;SDS011;45930;53.514;55.904;2023-03-29T06:32:16;7.88;;;5.25;;
60054;SDS011;45930;53.514;55.904;2023-03-29T06:33:17;6.93;;;4.35;;
60054;SDS011;45930;53.514;55.904;2023-03-29T06:34:18;9.50;;;4.50;;
60054;SDS011;45930;53.514;55.904;2023-03-29T06:35:18;11.32;;;5.65;;
60054;SDS011;45930;53.514;55.904;2023-03-29T06:36:20;5.72;;;4.15;;
60054;SDS011;45930;53.514;55.904;2023-03-29T06:37:21;9.43;;;5.47;;
60054;SDS011;45930;53.514;55.904;2023-03-29T06:38:23;8.60;;;5.32;;
60054;SDS011;45930;53.514;55.904;2023-03-29T06:39:25;7.30;;;4.68;;